sensor_id;sensor_type;location;lat;lon;timestamp;pressure;altitude;pressure_sealevel;temperature;humidity
63321;BME280;49449;48.800;9.534;2023-02-03T00:01:10;99819.63;;;5.29;44.45
63321;BME280;49449;48.800;9.534;2023-02-03T00:03:38;99813.75;;;5.36;43.87
63321;BME280;49449;48.800;9.534;2023-02-03T00:06:06;99817.53;;;5.41;43.45
63321;BME280;49449;48.800;9.534;2023-02-03T00:08:35;99811.75;;;5.29;43.97
63321;BME280;49449;48.800;9.534;2023-02-03T00:11:04;99801.59;;;5.18;44.44
63321;BME280;49449;48.800;9.534;2023-02-03T00:13:33;99795.41;;;5.44;44.04
63321;BME280;49449;48.800;9.534;2023-02-03T00:16:01;99800.66;;;5.60;43.81
63321;BME280;49449;48.800;9.534;2023-02-03T00:18:30;99803.59;;;5.41;43.37
63321;BME280;49449;48.800;9.534;2023-02-03T00:20:58;99811.78;;;5.54;43.87
63321;BME280;49449;48.800;9.534;2023-02-03T00:23:25;99811.78;;;5.62;43.54
63321;BME280;49449;48.800;9.534;2023-02-03T00:25:57;99816.38;;;5.68;43.56
63321;BME280;49449;48.800;9.534;2023-02-03T00:28:28;99802.28;;;5.69;43.44
63321;BME280;49449;48.800;9.534;2023-02-03T00:30:57;99805.88;;;5.52;43.51
63321;BME280;49449;48.800;9.534;2023-02-03T00:33:25;99802.94;;;5.47;43.87
63321;BME280;49449;48.800;9.534;2023-02-03T00:35:54;99798.19;;;5.59;43.45
63321;BME280;49449;48.800;9.534;2023-02-03T00:38:21;99803.09;;;5.29;43.87
63321;BME280;49449;48.800;9.534;2023-02-03T00:40:53;99801.91;;;5.07;44.07
63321;BME280;49449;48.800;9.534;2023-02-03T00:43:21;99795.66;;;4.91;44.48
63321;BME280;49449;48.800;9.534;2023-02-03T00:45:48;99806.16;;;5.08;44.24
63321;BME280;49449;48.800;9.534;2023-02-03T00:48:16;99814.53;;;5.11;44.00
63321;BME280;49449;48.800;9.534;2023-02-03T00:50:45;99825.84;;;5.37;44.18
63321;BME280;49449;48.800;9.534;2023-02-03T00:53:14;99833.91;;;5.43;43.12
63321;BME280;49449;48.800;9.534;2023-02-03T00:55:42;99825.72;;;5.46;43.46
63321;BME280;49449;48.800;9.534;2023-02-03T00:58:10;99816.53;;;5.34;43.80
63321;BME280;49449;48.800;9.534;2023-02-03T01:00:38;99820.94;;;5.25;44.06
63321;BME280;49449;48.800;9.534;2023-02-03T01:03:06;99812.25;;;5.17;43.61
63321;BME280;49449;48.800;9.534;2023-02-03T01:05:33;99807.81;;;5.09;44.33
63321;BME280;49449;48.800;9.534;2023-02-03T01:08:01;99817.81;;;5.22;43.76
63321;BME280;49449;48.800;9.534;2023-02-03T01:10:31;99829.44;;;5.19;44.24
63321;BME280;49449;48.800;9.534;2023-02-03T01:12:58;99827.16;;;5.16;44.17
63321;BME280;49449;48.800;9.534;2023-02-03T01:15:26;99822.59;;;4.84;44.69
63321;BME280;49449;48.800;9.534;2023-02-03T01:17:54;99802.13;;;4.79;44.94
63321;BME280;49449;48.800;9.534;2023-02-03T01:20:22;99784.47;;;4.47;45.57
63321;BME280;49449;48.800;9.534;2023-02-03T01:22:50;99753.47;;;4.26;46.13
63321;BME280;49449;48.800;9.534;2023-02-03T01:25:17;99759.31;;;4.46;45.51
63321;BME280;49449;48.800;9.534;2023-02-03T01:27:46;99762.75;;;3.86;47.08
63321;BME280;49449;48.800;9.534;2023-02-03T01:30:14;99773.16;;;4.38;45.72
63321;BME280;49449;48.800;9.534;2023-02-03T01:32:42;99788.69;;;4.31;45.87
63321;BME280;49449;48.800;9.534;2023-02-03T01:35:10;99790.66;;;4.72;45.29
63321;BME280;49449;48.800;9.534;2023-02-03T01:37:38;99784.06;;;4.68;45.10
63321;BME280;49449;48.800;9.534;2023-02-03T01:40:07;99790.22;;;4.50;45.36
63321;BME280;49449;48.800;9.534;2023-02-03T01:42:35;99781.19;;;4.36;46.13
63321;BME280;49449;48.800;9.534;2023-02-03T01:45:04;99773.13;;;4.30;46.04
63321;BME280;49449;48.800;9.534;2023-02-03T01:47:34;99771.97;;;4.24;45.86
63321;BME280;49449;48.800;9.534;2023-02-03T01:50:09;99767.38;;;4.61;45.61
63321;BME280;49449;48.800;9.534;2023-02-03T01:52:40;99768.59;;;4.06;46.05
63321;BME280;49449;48.800;9.534;2023-02-03T01:55:11;99770.81;;;4.27;46.28
63321;BME280;49449;48.800;9.534;2023-02-03T01:57:44;99759.78;;;3.80;47.30
63321;BME280;49449;48.800;9.534;2023-02-03T02:00:16;99767.50;;;4.16;46.63
63321;BME280;49449;48.800;9.534;2023-02-03T02:02:45;99779.69;;;4.68;45.33
63321;BME280;49449;48.800;9.534;2023-02-03T02:05:19;99767.94;;;4.81;45.25
63321;BME280;49449;48.800;9.534;2023-02-03T02:07:48;99755.78;;;4.71;45.00
63321;BME280;49449;48.800;9.534;2023-02-03T02:10:17;99749.34;;;4.57;45.59
63321;BME280;49449;48.800;9.534;2023-02-03T02:12:45;99751.97;;;4.57;45.76
63321;BME280;49449;48.800;9.534;2023-02-03T02:15:15;99747.31;;;4.35;46.08
63321;BME280;49449;48.800;9.534;2023-02-03T02:18:05;99742.75;;;4.45;45.74
63321;BME280;49449;48.800;9.534;2023-02-03T02:21:08;99726.09;;;4.04;46.77
63321;BME280;49449;48.800;9.534;2023-02-03T02:23:58;99708.16;;;4.17;46.56
63321;BME280;49449;48.800;9.534;2023-02-03T02:26:41;99706.88;;;4.29;46.32
63321;BME280;49449;48.800;9.534;2023-02-03T02:29:44;99697.97;;;4.40;46.09
63321;BME280;49449;48.800;9.534;2023-02-03T02:32:29;99709.44;;;4.47;46.08
63321;BME280;49449;48.800;9.534;2023-02-03T02:35:02;99702.00;;;4.26;46.42
63321;BME280;49449;48.800;9.534;2023-02-03T02:37:37;99699.53;;;3.64;48.13
63321;BME280;49449;48.800;9.534;2023-02-03T02:40:13;99687.16;;;4.00;47.28
63321;BME280;49449;48.800;9.534;2023-02-03T02:42:53;99678.59;;;4.25;46.75
63321;BME280;49449;48.800;9.534;2023-02-03T02:45:28;99680.84;;;3.77;47.70
63321;BME280;49449;48.800;9.534;2023-02-03T02:48:04;99671.50;;;4.09;47.41
63321;BME280;49449;48.800;9.534;2023-02-03T02:50:38;99698.69;;;4.16;47.15
63321;BME280;49449;48.800;9.534;2023-02-03T02:53:09;99709.00;;;4.17;47.09
63321;BME280;49449;48.800;9.534;2023-02-03T02:55:39;99711.56;;;3.75;48.24
63321;BME280;49449;48.800;9.534;2023-02-03T02:58:10;99715.56;;;3.69;48.38
63321;BME280;49449;48.800;9.534;2023-02-03T03:00:41;99725.28;;;4.11;47.35
63321;BME280;49449;48.800;9.534;2023-02-03T03:03:14;99725.72;;;4.33;46.82
63321;BME280;49449;48.800;9.534;2023-02-03T03:05:46;99728.28;;;3.90;47.81
63321;BME280;49449;48.800;9.534;2023-02-03T03:08:15;99719.66;;;4.32;46.95
63321;BME280;49449;48.800;9.534;2023-02-03T03:10:46;99708.69;;;4.29;47.02
63321;BME280;49449;48.800;9.534;2023-02-03T03:13:19;99696.09;;;4.24;47.09
63321;BME280;49449;48.800;9.534;2023-02-03T03:15:49;99695.81;;;4.35;46.72
63321;BME280;49449;48.800;9.534;2023-02-03T03:18:22;99694.84;;;4.02;47.54
63321;BME280;49449;48.800;9.534;2023-02-03T03:20:55;99695.25;;;4.24;47.31
63321;BME280;49449;48.800;9.534;2023-02-03T03:23:27;99693.28;;;4.17;47.70
63321;BME280;49449;48.800;9.534;2023-02-03T03:26:01;99689.06;;;4.33;47.14
63321;BME280;49449;48.800;9.534;2023-02-03T03:28:36;99691.63;;;4.08;47.74
63321;BME280;49449;48.800;9.534;2023-02-03T03:31:07;99691.19;;;4.21;47.47
63321;BME280;49449;48.800;9.534;2023-02-03T03:33:36;99704.59;;;4.26;47.24
63321;BME280;49449;48.800;9.534;2023-02-03T03:36:11;99715.28;;;4.41;47.08
63321;BME280;49449;48.800;9.534;2023-02-03T03:38:46;99720.56;;;4.49;46.66
63321;BME280;49449;48.800;9.534;2023-02-03T03:41:20;99724.09;;;4.32;47.38
63321;BME280;49449;48.800;9.534;2023-02-03T03:43:52;99715.63;;;4.46;46.86
63321;BME280;49449;48.800;9.534;2023-02-03T03:46:26;99712.81;;;4.39;47.06
63321;BME280;49449;48.800;9.534;2023-02-03T03:48:57;99728.44;;;4.66;46.24
63321;BME280;49449;48.800;9.534;2023-02-03T03:51:30;99734.91;;;4.45;46.67
63321;BME280;49449;48.800;9.534;2023-02-03T03:54:02;99751.38;;;4.72;46.29
63321;BME280;49449;48.800;9.534;2023-02-03T03:56:34;99753.00;;;4.65;46.40
63321;BME280;49449;48.800;9.534;2023-02-03T03:59:03;99755.50;;;4.83;45.98
63321;BME280;49449;48.800;9.534;2023-02-03T04:01:34;99757.63;;;4.79;45.92
63321;BME280;49449;48.800;9.534;2023-02-03T04:04:07;99769.50;;;5.08;45.59
63321;BME280;49449;48.800;9.534;2023-02-03T04:06:37;99783.31;;;4.75;45.71
63321;BME280;49449;48.800;9.534;2023-02-03T04:09:05;99778.28;;;4.90;45.81
63321;BME280;49449;48.800;9.534;2023-02-03T04:11:33;99764.34;;;4.90;45.87
63321;BME280;49449;48.800;9.534;2023-02-03T04:14:18;99771.38;;;4.81;45.95
63321;BME280;49449;48.800;9.534;2023-02-03T04:16:46;99768.41;;;4.76;46.20
63321;BME280;49449;48.800;9.534;2023-02-03T04:19:15;99760.75;;;4.83;45.84
63321;BME280;49449;48.800;9.534;2023-02-03T04:21:43;99767.50;;;5.02;44.98
63321;BME280;49449;48.800;9.534;2023-02-03T04:24:11;99760.00;;;5.15;45.26
63321;BME280;49449;48.800;9.534;2023-02-03T04:26:39;99753.91;;;4.98;45.29
63321;BME280;49449;48.800;9.534;2023-02-03T04:29:07;99753.34;;;4.78;45.74
63321;BME280;49449;48.800;9.534;2023-02-03T04:31:35;99754.00;;;4.72;45.98
63321;BME280;49449;48.800;9.534;2023-02-03T04:34:04;99761.59;;;5.00;45.81
63321;BME280;49449;48.800;9.534;2023-02-03T04:36:33;99754.19;;;4.87;46.07
63321;BME280;49449;48.800;9.534;2023-02-03T04:39:00;99740.13;;;4.37;47.86
63321;BME280;49449;48.800;9.534;2023-02-03T04:41:28;99733.94;;;4.46;47.88
63321;BME280;49449;48.800;9.534;2023-02-03T04:43:56;99733.84;;;4.56;47.86
63321;BME280;49449;48.800;9.534;2023-02-03T04:46:23;99733.81;;;4.13;49.05
63321;BME280;49449;48.800;9.534;2023-02-03T04:48:51;99735.88;;;4.36;48.58
63321;BME280;49449;48.800;9.534;2023-02-03T04:51:19;99744.03;;;4.33;48.97
63321;BME280;49449;48.800;9.534;2023-02-03T04:53:48;99751.91;;;4.41;48.97
63321;BME280;49449;48.800;9.534;2023-02-03T04:56:16;99750.19;;;4.24;48.96
63321;BME280;49449;48.800;9.534;2023-02-03T04:58:43;99741.34;;;3.90;49.80
63321;BME280;49449;48.800;9.534;2023-02-03T05:01:11;99729.47;;;3.96;50.02
63321;BME280;49449;48.800;9.534;2023-02-03T05:03:39;99717.50;;;4.19;49.29
63321;BME280;49449;48.800;9.534;2023-02-03T05:06:06;99734.81;;;4.55;48.62
63321;BME280;49449;48.800;9.534;2023-02-03T05:08:34;99738.47;;;4.28;48.81
63321;BME280;49449;48.800;9.534;2023-02-03T05:11:03;99732.97;;;4.47;48.87
63321;BME280;49449;48.800;9.534;2023-02-03T05:13:32;99740.09;;;4.29;49.14
63321;BME280;49449;48.800;9.534;2023-02-03T05:15:59;99738.13;;;4.23;49.51
63321;BME280;49449;48.800;9.534;2023-02-03T05:18:27;99745.88;;;4.06;49.90
63321;BME280;49449;48.800;9.534;2023-02-03T05:20:55;99744.72;;;4.43;49.18
63321;BME280;49449;48.800;9.534;2023-02-03T05:23:23;99742.66;;;4.55;48.98
63321;BME280;49449;48.800;9.534;2023-02-03T05:25:50;99734.94;;;4.53;49.09
63321;BME280;49449;48.800;9.534;2023-02-03T05:28:20;99732.41;;;4.78;48.64
63321;BME280;49449;48.800;9.534;2023-02-03T05:30:47;99737.31;;;4.73;48.11
63321;BME280;49449;48.800;9.534;2023-02-03T05:33:15;99736.03;;;4.77;48.13
63321;BME280;49449;48.800;9.534;2023-02-03T05:35:43;99738.94;;;4.82;48.23
63321;BME280;49449;48.800;9.534;2023-02-03T05:38:11;99751.03;;;4.75;47.89
63321;BME280;49449;48.800;9.534;2023-02-03T05:40:38;99750.59;;;4.37;48.81
63321;BME280;49449;48.800;9.534;2023-02-03T05:43:26;99760.34;;;4.69;48.70
63321;BME280;49449;48.800;9.534;2023-02-03T05:45:54;99756.47;;;4.82;48.40
63321;BME280;49449;48.800;9.534;2023-02-03T05:48:26;99747.44;;;4.68;48.22
63321;BME280;49449;48.800;9.534;2023-02-03T05:50:53;99752.59;;;4.94;48.47
63321;BME280;49449;48.800;9.534;2023-02-03T05:53:22;99751.50;;;4.62;48.31
63321;BME280;49449;48.800;9.534;2023-02-03T05:55:50;99748.13;;;4.78;48.09
63321;BME280;49449;48.800;9.534;2023-02-03T05:58:18;99726.41;;;4.35;49.08
63321;BME280;49449;48.800;9.534;2023-02-03T06:00:47;99718.06;;;4.39;48.99
63321;BME280;49449;48.800;9.534;2023-02-03T06:03:15;99723.78;;;4.35;48.99
63321;BME280;49449;48.800;9.534;2023-02-03T06:05:42;99721.88;;;4.11;49.48
63321;BME280;49449;48.800;9.534;2023-02-03T06:08:10;99738.63;;;4.34;49.02
63321;BME280;49449;48.800;9.534;2023-02-03T06:10:38;99740.03;;;4.20;49.53
63321;BME280;49449;48.800;9.534;2023-02-03T06:13:07;99746.72;;;4.57;48.67
63321;BME280;49449;48.800;9.534;2023-02-03T06:15:36;99731.53;;;4.53;48.65
63321;BME280;49449;48.800;9.534;2023-02-03T06:18:05;99741.59;;;4.31;49.38
63321;BME280;49449;48.800;9.534;2023-02-03T06:20:33;99733.28;;;4.44;48.55
63321;BME280;49449;48.800;9.534;2023-02-03T06:23:01;99737.56;;;4.53;48.81
63321;BME280;49449;48.800;9.534;2023-02-03T06:25:29;99728.41;;;4.57;48.32
63321;BME280;49449;48.800;9.534;2023-02-03T06:27:58;99734.53;;;3.97;49.48
63321;BME280;49449;48.800;9.534;2023-02-03T06:30:26;99742.66;;;4.20;49.20
63321;BME280;49449;48.800;9.534;2023-02-03T06:32:54;99731.22;;;4.56;48.40
63321;BME280;49449;48.800;9.534;2023-02-03T06:35:23;99728.56;;;4.13;49.27
63321;BME280;49449;48.800;9.534;2023-02-03T06:37:51;99732.88;;;4.23;48.67
63321;BME280;49449;48.800;9.534;2023-02-03T06:40:19;99735.81;;;4.19;49.02
63321;BME280;49449;48.800;9.534;2023-02-03T06:42:47;99729.22;;;4.50;48.37
63321;BME280;49449;48.800;9.534;2023-02-03T06:45:16;99719.13;;;4.63;48.10
63321;BME280;49449;48.800;9.534;2023-02-03T06:47:44;99709.25;;;4.41;48.59
63321;BME280;49449;48.800;9.534;2023-02-03T06:52:42;99700.31;;;4.68;48.54
63321;BME280;49449;48.800;9.534;2023-02-03T06:55:10;99705.63;;;4.42;48.32
63321;BME280;49449;48.800;9.534;2023-02-03T06:57:45;99696.75;;;3.92;49.44
63321;BME280;49449;48.800;9.534;2023-02-03T07:00:15;99696.06;;;4.16;49.08
63321;BME280;49449;48.800;9.534;2023-02-03T07:02:44;99687.84;;;3.76;50.20
63321;BME280;49449;48.800;9.534;2023-02-03T07:05:12;99693.56;;;3.72;50.44
63321;BME280;49449;48.800;9.534;2023-02-03T07:07:40;99698.97;;;4.13;49.52
63321;BME280;49449;48.800;9.534;2023-02-03T07:10:09;99701.69;;;4.37;49.04
63321;BME280;49449;48.800;9.534;2023-02-03T07:12:37;99704.00;;;4.41;48.71
63321;BME280;49449;48.800;9.534;2023-02-03T07:15:05;99699.47;;;4.51;48.59
63321;BME280;49449;48.800;9.534;2023-02-03T07:17:33;99697.72;;;4.76;48.38
63321;BME280;49449;48.800;9.534;2023-02-03T07:20:01;99687.34;;;4.50;48.77
63321;BME280;49449;48.800;9.534;2023-02-03T07:22:28;99685.19;;;4.45;48.20
63321;BME280;49449;48.800;9.534;2023-02-03T07:24:56;99691.31;;;4.62;47.99
63321;BME280;49449;48.800;9.534;2023-02-03T07:27:25;99676.28;;;4.72;48.03
63321;BME280;49449;48.800;9.534;2023-02-03T07:29:55;99681.84;;;4.86;47.08
63321;BME280;49449;48.800;9.534;2023-02-03T07:32:23;99692.22;;;5.04;47.13
63321;BME280;49449;48.800;9.534;2023-02-03T07:34:50;99694.78;;;4.87;47.15
63321;BME280;49449;48.800;9.534;2023-02-03T07:37:18;99712.09;;;4.80;47.07
63321;BME280;49449;48.800;9.534;2023-02-03T07:39:46;99712.44;;;4.77;47.19
63321;BME280;49449;48.800;9.534;2023-02-03T07:42:13;99713.75;;;4.81;47.21
63321;BME280;49449;48.800;9.534;2023-02-03T07:44:42;99710.81;;;4.76;47.01
63321;BME280;49449;48.800;9.534;2023-02-03T07:47:10;99714.41;;;4.24;48.11
63321;BME280;49449;48.800;9.534;2023-02-03T07:49:38;99716.97;;;4.58;47.74
63321;BME280;49449;48.800;9.534;2023-02-03T07:52:06;99722.31;;;4.41;47.58
63321;BME280;49449;48.800;9.534;2023-02-03T07:54:33;99728.09;;;4.18;48.29
63321;BME280;49449;48.800;9.534;2023-02-03T07:57:01;99744.81;;;4.25;48.38
63321;BME280;49449;48.800;9.534;2023-02-03T07:59:29;99748.00;;;4.37;48.45
63321;BME280;49449;48.800;9.534;2023-02-03T08:01:58;99750.03;;;4.68;47.73
63321;BME280;49449;48.800;9.534;2023-02-03T08:04:26;99767.09;;;4.80;47.38
63321;BME280;49449;48.800;9.534;2023-02-03T08:06:53;99771.22;;;4.83;47.20
63321;BME280;49449;48.800;9.534;2023-02-03T08:09:21;99772.84;;;4.41;48.09
63321;BME280;49449;48.800;9.534;2023-02-03T08:11:49;99772.16;;;4.31;48.61
63321;BME280;49449;48.800;9.534;2023-02-03T08:14:17;99777.78;;;3.84;49.74
63321;BME280;49449;48.800;9.534;2023-02-03T08:16:45;99774.13;;;4.03;49.25
63321;BME280;49449;48.800;9.534;2023-02-03T08:19:14;99760.28;;;3.84;49.90
63321;BME280;49449;48.800;9.534;2023-02-03T08:21:42;99753.75;;;4.14;49.11
63321;BME280;49449;48.800;9.534;2023-02-03T08:24:10;99753.19;;;4.29;48.96
63321;BME280;49449;48.800;9.534;2023-02-03T08:26:37;99758.66;;;4.52;48.47
63321;BME280;49449;48.800;9.534;2023-02-03T08:29:05;99762.28;;;4.51;48.31
63321;BME280;49449;48.800;9.534;2023-02-03T08:31:33;99768.41;;;4.33;48.68
63321;BME280;49449;48.800;9.534;2023-02-03T08:34:01;99772.66;;;4.34;48.82
63321;BME280;49449;48.800;9.534;2023-02-03T08:36:30;99743.81;;;3.92;49.70
63321;BME280;49449;48.800;9.534;2023-02-03T08:38:58;99741.47;;;3.80;50.53
63321;BME280;49449;48.800;9.534;2023-02-03T08:41:25;99765.91;;;4.24;49.79
63321;BME280;49449;48.800;9.534;2023-02-03T08:43:53;99758.44;;;4.03;49.92
63321;BME280;49449;48.800;9.534;2023-02-03T08:46:21;99770.09;;;4.43;48.91
63321;BME280;49449;48.800;9.534;2023-02-03T08:48:49;99795.38;;;3.81;50.56
63321;BME280;49449;48.800;9.534;2023-02-03T08:51:18;99794.75;;;4.06;50.40
63321;BME280;49449;48.800;9.534;2023-02-03T08:53:47;99770.41;;;4.05;50.11
63321;BME280;49449;48.800;9.534;2023-02-03T08:56:15;99762.13;;;4.18;50.10
63321;BME280;49449;48.800;9.534;2023-02-03T08:58:42;99761.50;;;4.24;49.97
63321;BME280;49449;48.800;9.534;2023-02-03T09:01:13;99757.53;;;4.20;50.05
63321;BME280;49449;48.800;9.534;2023-02-03T09:03:41;99768.31;;;4.17;49.86
63321;BME280;49449;48.800;9.534;2023-02-03T09:06:10;99773.50;;;4.43;49.37
63321;BME280;49449;48.800;9.534;2023-02-03T09:08:38;99758.78;;;4.08;50.25
63321;BME280;49449;48.800;9.534;2023-02-03T09:11:09;99772.38;;;3.85;51.00
63321;BME280;49449;48.800;9.534;2023-02-03T09:13:37;99767.16;;;3.59;51.92
63321;BME280;49449;48.800;9.534;2023-02-03T09:16:05;99767.31;;;3.84;51.23
63321;BME280;49449;48.800;9.534;2023-02-03T09:18:33;99756.84;;;4.10;50.54
63321;BME280;49449;48.800;9.534;2023-02-03T09:21:04;99757.59;;;4.28;50.50
63321;BME280;49449;48.800;9.534;2023-02-03T09:23:32;99753.88;;;4.39;50.08
63321;BME280;49449;48.800;9.534;2023-02-03T09:26:01;99768.25;;;4.35;50.02
63321;BME280;49449;48.800;9.534;2023-02-03T09:28:30;99752.84;;;3.97;50.77
63321;BME280;49449;48.800;9.534;2023-02-03T09:30:59;99757.53;;;4.20;50.23
63321;BME280;49449;48.800;9.534;2023-02-03T09:33:27;99766.47;;;4.35;50.25
63321;BME280;49449;48.800;9.534;2023-02-03T09:35:56;99774.16;;;4.37;50.04
63321;BME280;49449;48.800;9.534;2023-02-03T09:38:24;99762.09;;;4.44;49.70
63321;BME280;49449;48.800;9.534;2023-02-03T09:40:55;99771.44;;;4.55;49.38
63321;BME280;49449;48.800;9.534;2023-02-03T09:43:40;99773.75;;;4.58;49.69
63321;BME280;49449;48.800;9.534;2023-02-03T09:46:14;99756.28;;;4.32;49.77
63321;BME280;49449;48.800;9.534;2023-02-03T09:48:46;99760.31;;;3.92;50.68
63321;BME280;49449;48.800;9.534;2023-02-03T09:51:18;99760.81;;;3.88;51.40
63321;BME280;49449;48.800;9.534;2023-02-03T09:53:49;99762.25;;;3.82;51.54
63321;BME280;49449;48.800;9.534;2023-02-03T09:56:25;99760.09;;;4.04;50.63
63321;BME280;49449;48.800;9.534;2023-02-03T09:58:55;99748.91;;;3.93;51.15
63321;BME280;49449;48.800;9.534;2023-02-03T10:01:24;99749.59;;;4.30;50.38
63321;BME280;49449;48.800;9.534;2023-02-03T10:03:59;99738.41;;;4.62;49.75
63321;BME280;49449;48.800;9.534;2023-02-03T10:06:32;99733.91;;;4.81;49.21
63321;BME280;49449;48.800;9.534;2023-02-03T10:09:25;99722.81;;;5.03;48.81
63321;BME280;49449;48.800;9.534;2023-02-03T10:12:15;99723.78;;;5.10;49.07
63321;BME280;49449;48.800;9.534;2023-02-03T10:14:57;99734.94;;;5.04;49.22
63321;BME280;49449;48.800;9.534;2023-02-03T10:17:31;99737.25;;;5.32;48.76
63321;BME280;49449;48.800;9.534;2023-02-03T10:20:03;99743.47;;;5.47;48.20
63321;BME280;49449;48.800;9.534;2023-02-03T10:22:35;99749.38;;;5.25;47.74
63321;BME280;49449;48.800;9.534;2023-02-03T10:25:06;99745.63;;;5.36;47.85
63321;BME280;49449;48.800;9.534;2023-02-03T10:27:39;99746.56;;;5.67;47.36
63321;BME280;49449;48.800;9.534;2023-02-03T10:30:18;99751.16;;;5.24;48.19
63321;BME280;49449;48.800;9.534;2023-02-03T10:32:48;99756.22;;;5.09;48.36
63321;BME280;49449;48.800;9.534;2023-02-03T10:35:16;99759.66;;;4.93;48.88
63321;BME280;49449;48.800;9.534;2023-02-03T10:37:48;99751.81;;;5.26;48.13
63321;BME280;49449;48.800;9.534;2023-02-03T10:40:17;99744.09;;;5.08;48.40
63321;BME280;49449;48.800;9.534;2023-02-03T10:42:46;99748.56;;;5.16;48.31
63321;BME280;49449;48.800;9.534;2023-02-03T10:45:36;99755.50;;;4.83;49.13
63321;BME280;49449;48.800;9.534;2023-02-03T10:48:08;99752.22;;;4.89;48.96
63321;BME280;49449;48.800;9.534;2023-02-03T10:50:41;99732.75;;;4.83;49.13
63321;BME280;49449;48.800;9.534;2023-02-03T10:53:20;99725.13;;;4.55;49.85
63321;BME280;49449;48.800;9.534;2023-02-03T10:55:48;99719.84;;;4.90;49.00
63321;BME280;49449;48.800;9.534;2023-02-03T10:58:21;99727.75;;;4.47;50.19
63321;BME280;49449;48.800;9.534;2023-02-03T11:00:56;99728.47;;;4.82;49.28
63321;BME280;49449;48.800;9.534;2023-02-03T11:03:27;99719.00;;;4.89;48.84
63321;BME280;49449;48.800;9.534;2023-02-03T11:06:06;99729.88;;;5.11;48.47
63321;BME280;49449;48.800;9.534;2023-02-03T11:08:36;99697.44;;;5.12;48.22
63321;BME280;49449;48.800;9.534;2023-02-03T11:11:06;99703.50;;;5.21;48.31
63321;BME280;49449;48.800;9.534;2023-02-03T11:13:34;99714.03;;;4.70;49.64
63321;BME280;49449;48.800;9.534;2023-02-03T11:16:05;99708.53;;;4.89;49.64
63321;BME280;49449;48.800;9.534;2023-02-03T11:18:40;99696.13;;;5.00;49.45
63321;BME280;49449;48.800;9.534;2023-02-03T11:21:11;99683.28;;;4.64;50.46
63321;BME280;49449;48.800;9.534;2023-02-03T11:23:53;99685.66;;;5.24;49.43
63321;BME280;49449;48.800;9.534;2023-02-03T11:26:23;99692.19;;;5.12;49.00
63321;BME280;49449;48.800;9.534;2023-02-03T11:28:53;99698.09;;;4.98;50.24
63321;BME280;49449;48.800;9.534;2023-02-03T11:31:25;99676.28;;;4.89;49.48
63321;BME280;49449;48.800;9.534;2023-02-03T11:33:55;99690.16;;;4.73;50.62
63321;BME280;49449;48.800;9.534;2023-02-03T11:36:28;99685.66;;;5.00;50.10
63321;BME280;49449;48.800;9.534;2023-02-03T11:39:13;99684.31;;;4.79;50.77
63321;BME280;49449;48.800;9.534;2023-02-03T11:41:43;99699.56;;;4.92;50.21
63321;BME280;49449;48.800;9.534;2023-02-03T11:44:14;99704.25;;;4.80;49.72
63321;BME280;49449;48.800;9.534;2023-02-03T11:46:44;99690.38;;;4.88;50.04
63321;BME280;49449;48.800;9.534;2023-02-03T11:52:31;99682.13;;;4.66;51.27
63321;BME280;49449;48.800;9.534;2023-02-03T11:55:06;99681.19;;;4.84;50.59
63321;BME280;49449;48.800;9.534;2023-02-03T11:57:42;99666.22;;;4.43;50.72
63321;BME280;49449;48.800;9.534;2023-02-03T12:00:21;99656.13;;;4.89;50.54
63321;BME280;49449;48.800;9.534;2023-02-03T12:03:17;99660.22;;;4.84;50.46
63321;BME280;49449;48.800;9.534;2023-02-03T12:06:00;99665.81;;;4.89;50.42
63321;BME280;49449;48.800;9.534;2023-02-03T12:08:44;99651.78;;;5.14;49.57
63321;BME280;49449;48.800;9.534;2023-02-03T12:11:27;99649.00;;;5.16;49.34
63321;BME280;49449;48.800;9.534;2023-02-03T12:14:13;99643.91;;;5.06;49.47
63321;BME280;49449;48.800;9.534;2023-02-03T12:16:58;99649.00;;;5.16;49.35
63321;BME280;49449;48.800;9.534;2023-02-03T12:19:43;99657.66;;;4.92;49.21
63321;BME280;49449;48.800;9.534;2023-02-03T12:22:18;99662.44;;;4.97;49.89
63321;BME280;49449;48.800;9.534;2023-02-03T12:24:57;99649.91;;;4.82;50.08
63321;BME280;49449;48.800;9.534;2023-02-03T12:27:35;99652.09;;;5.11;49.24
63321;BME280;49449;48.800;9.534;2023-02-03T12:30:12;99650.09;;;4.89;49.71
63321;BME280;49449;48.800;9.534;2023-02-03T12:32:46;99649.44;;;4.79;50.00
63321;BME280;49449;48.800;9.534;2023-02-03T12:35:22;99631.94;;;4.79;49.28
63321;BME280;49449;48.800;9.534;2023-02-03T12:37:57;99625.69;;;4.64;49.83
63321;BME280;49449;48.800;9.534;2023-02-03T12:40:30;99621.28;;;4.89;49.35
63321;BME280;49449;48.800;9.534;2023-02-03T12:43:14;99614.91;;;4.58;50.13
63321;BME280;49449;48.800;9.534;2023-02-03T12:45:51;99607.03;;;4.75;49.28
63321;BME280;49449;48.800;9.534;2023-02-03T12:48:22;99602.81;;;4.90;49.16
63321;BME280;49449;48.800;9.534;2023-02-03T12:50:55;99600.50;;;4.87;48.52
63321;BME280;49449;48.800;9.534;2023-02-03T12:53:26;99598.06;;;4.94;48.18
63321;BME280;49449;48.800;9.534;2023-02-03T12:56:01;99594.63;;;4.52;49.06
63321;BME280;49449;48.800;9.534;2023-02-03T12:58:35;99578.75;;;4.46;49.32
63321;BME280;49449;48.800;9.534;2023-02-03T13:01:07;99567.78;;;4.83;48.56
63321;BME280;49449;48.800;9.534;2023-02-03T13:03:40;99578.91;;;4.61;49.27
63321;BME280;49449;48.800;9.534;2023-02-03T13:06:15;99577.28;;;5.09;48.10
63321;BME280;49449;48.800;9.534;2023-02-03T13:08:53;99571.31;;;5.31;47.64
63321;BME280;49449;48.800;9.534;2023-02-03T13:11:28;99582.91;;;5.45;47.46
63321;BME280;49449;48.800;9.534;2023-02-03T13:14:03;99585.22;;;5.48;47.54
63321;BME280;49449;48.800;9.534;2023-02-03T13:16:36;99585.91;;;5.34;48.02
63321;BME280;49449;48.800;9.534;2023-02-03T13:19:08;99586.88;;;5.41;47.82
63321;BME280;49449;48.800;9.534;2023-02-03T13:21:41;99576.81;;;5.61;47.32
63321;BME280;49449;48.800;9.534;2023-02-03T13:24:09;99567.91;;;5.31;48.04
63321;BME280;49449;48.800;9.534;2023-02-03T13:26:48;99555.75;;;5.30;47.76
63321;BME280;49449;48.800;9.534;2023-02-03T13:29:31;99548.63;;;4.99;48.38
63321;BME280;49449;48.800;9.534;2023-02-03T13:32:13;99548.63;;;5.07;48.02
63321;BME280;49449;48.800;9.534;2023-02-03T13:35:00;99546.78;;;5.24;47.54
63321;BME280;49449;48.800;9.534;2023-02-03T13:37:58;99542.78;;;5.45;46.58